sensor_id;sensor_type;location;lat;lon;timestamp;pressure;altitude;pressure_sealevel;temperature;humidity
64827;BME280;51265;53.972;12.286;2023-10-13T00:01:48;100629.00;;;6.74;100.00
64827;BME280;51265;53.972;12.286;2023-10-13T00:04:18;100625.16;;;6.80;100.00
64827;BME280;51265;53.972;12.286;2023-10-13T00:06:49;100619.94;;;6.89;100.00
64827;BME280;51265;53.972;12.286;2023-10-13T00:09:15;100616.94;;;7.01;100.00
64827;BME280;51265;53.972;12.286;2023-10-13T00:11:42;100619.09;;;7.14;100.00
64827;BME280;51265;53.972;12.286;2023-10-13T00:14:12;100631.13;;;7.23;100.00
64827;BME280;51265;53.972;12.286;2023-10-13T00:16:45;100632.50;;;7.31;100.00
64827;BME280;51265;53.972;12.286;2023-10-13T00:19:31;100631.09;;;7.43;100.00
64827;BME280;51265;53.972;12.286;2023-10-13T00:22:08;100635.47;;;7.55;100.00
64827;BME280;51265;53.972;12.286;2023-10-13T00:24:39;100630.22;;;7.63;100.00
64827;BME280;51265;53.972;12.286;2023-10-13T00:27:13;100634.03;;;7.72;100.00
64827;BME280;51265;53.972;12.286;2023-10-13T00:29:56;100631.53;;;7.81;100.00
64827;BME280;51265;53.972;12.286;2023-10-13T00:32:45;100624.38;;;7.90;100.00
64827;BME280;51265;53.972;12.286;2023-10-13T00:35:13;100628.72;;;7.96;100.00
64827;BME280;51265;53.972;12.286;2023-10-13T00:37:51;100627.88;;;8.01;100.00
64827;BME280;51265;53.972;12.286;2023-10-13T00:40:23;100612.22;;;8.07;100.00
64827;BME280;51265;53.972;12.286;2023-10-13T00:42:56;100619.84;;;8.15;100.00
64827;BME280;51265;53.972;12.286;2023-10-13T00:48:33;100621.13;;;8.33;100.00
64827;BME280;51265;53.972;12.286;2023-10-13T00:51:06;100617.56;;;8.32;100.00
64827;BME280;51265;53.972;12.286;2023-10-13T00:53:34;100610.41;;;8.36;100.00
64827;BME280;51265;53.972;12.286;2023-10-13T00:56:04;100595.28;;;8.44;100.00
64827;BME280;51265;53.972;12.286;2023-10-13T00:58:34;100599.09;;;8.53;100.00
64827;BME280;51265;53.972;12.286;2023-10-13T01:01:01;100598.69;;;8.65;100.00
64827;BME280;51265;53.972;12.286;2023-10-13T01:03:48;100595.88;;;8.75;100.00
64827;BME280;51265;53.972;12.286;2023-10-13T01:06:17;100584.34;;;8.78;100.00
64827;BME280;51265;53.972;12.286;2023-10-13T01:08:45;100587.59;;;8.80;100.00
64827;BME280;51265;53.972;12.286;2023-10-13T01:11:18;100589.81;;;8.78;100.00
64827;BME280;51265;53.972;12.286;2023-10-13T01:13:44;100587.09;;;8.78;100.00
64827;BME280;51265;53.972;12.286;2023-10-13T01:16:13;100579.34;;;8.80;100.00
64827;BME280;51265;53.972;12.286;2023-10-13T01:18:39;100588.66;;;8.84;100.00
64827;BME280;51265;53.972;12.286;2023-10-13T01:25:13;100582.03;;;8.90;100.00
64827;BME280;51265;53.972;12.286;2023-10-13T01:27:45;100575.94;;;8.93;100.00
64827;BME280;51265;53.972;12.286;2023-10-13T01:30:14;100577.00;;;8.97;100.00
64827;BME280;51265;53.972;12.286;2023-10-13T01:32:42;100578.63;;;8.98;100.00
64827;BME280;51265;53.972;12.286;2023-10-13T01:35:11;100575.31;;;9.02;100.00
64827;BME280;51265;53.972;12.286;2023-10-13T01:37:38;100574.78;;;9.00;100.00
64827;BME280;51265;53.972;12.286;2023-10-13T01:40:04;100575.84;;;9.04;100.00
64827;BME280;51265;53.972;12.286;2023-10-13T01:42:31;100572.81;;;9.05;100.00
64827;BME280;51265;53.972;12.286;2023-10-13T01:44:57;100573.06;;;9.09;100.00
64827;BME280;51265;53.972;12.286;2023-10-13T01:47:32;100561.50;;;9.12;100.00
64827;BME280;51265;53.972;12.286;2023-10-13T01:49:59;100564.75;;;9.14;100.00
64827;BME280;51265;53.972;12.286;2023-10-13T01:52:39;100562.56;;;9.16;100.00
64827;BME280;51265;53.972;12.286;2023-10-13T01:55:08;100559.44;;;9.22;100.00
64827;BME280;51265;53.972;12.286;2023-10-13T01:57:37;100544.59;;;9.23;100.00
64827;BME280;51265;53.972;12.286;2023-10-13T02:00:03;100536.56;;;9.27;100.00
64827;BME280;51265;53.972;12.286;2023-10-13T02:02:45;100528.28;;;9.32;100.00
64827;BME280;51265;53.972;12.286;2023-10-13T02:05:11;100515.06;;;9.34;100.00
64827;BME280;51265;53.972;12.286;2023-10-13T02:07:43;100514.47;;;9.37;100.00
64827;BME280;51265;53.972;12.286;2023-10-13T02:10:12;100509.50;;;9.39;100.00
64827;BME280;51265;53.972;12.286;2023-10-13T02:12:39;100506.69;;;9.44;100.00
64827;BME280;51265;53.972;12.286;2023-10-13T02:15:12;100509.91;;;9.52;100.00
64827;BME280;51265;53.972;12.286;2023-10-13T02:17:46;100513.19;;;9.54;100.00
64827;BME280;51265;53.972;12.286;2023-10-13T02:20:18;100510.38;;;9.59;100.00
64827;BME280;51265;53.972;12.286;2023-10-13T02:22:44;100504.28;;;9.62;100.00
64827;BME280;51265;53.972;12.286;2023-10-13T02:25:18;100505.59;;;9.64;100.00
64827;BME280;51265;53.972;12.286;2023-10-13T02:28:02;100498.13;;;9.70;100.00
64827;BME280;51265;53.972;12.286;2023-10-13T02:30:28;100488.75;;;9.71;100.00
64827;BME280;51265;53.972;12.286;2023-10-13T02:32:55;100495.56;;;9.73;100.00
64827;BME280;51265;53.972;12.286;2023-10-13T02:35:23;100493.59;;;9.79;100.00
64827;BME280;51265;53.972;12.286;2023-10-13T02:37:57;100483.63;;;9.83;100.00
64827;BME280;51265;53.972;12.286;2023-10-13T02:40:35;100468.69;;;9.89;100.00
64827;BME280;51265;53.972;12.286;2023-10-13T02:43:01;100472.47;;;9.93;100.00
64827;BME280;51265;53.972;12.286;2023-10-13T02:45:27;100464.97;;;9.99;100.00
64827;BME280;51265;53.972;12.286;2023-10-13T02:47:53;100459.06;;;10.06;100.00
64827;BME280;51265;53.972;12.286;2023-10-13T02:50:40;100452.44;;;10.07;100.00
64827;BME280;51265;53.972;12.286;2023-10-13T02:53:11;100453.56;;;10.06;100.00
64827;BME280;51265;53.972;12.286;2023-10-13T02:55:49;100441.38;;;10.12;100.00
64827;BME280;51265;53.972;12.286;2023-10-13T02:58:15;100434.66;;;10.18;100.00
64827;BME280;51265;53.972;12.286;2023-10-13T03:00:42;100432.44;;;10.20;100.00
64827;BME280;51265;53.972;12.286;2023-10-13T03:03:08;100415.31;;;10.23;100.00
64827;BME280;51265;53.972;12.286;2023-10-13T03:05:35;100410.88;;;10.27;100.00
64827;BME280;51265;53.972;12.286;2023-10-13T03:08:05;100408.44;;;10.39;100.00
64827;BME280;51265;53.972;12.286;2023-10-13T03:10:32;100411.63;;;10.46;100.00
64827;BME280;51265;53.972;12.286;2023-10-13T03:12:58;100408.66;;;10.57;100.00
64827;BME280;51265;53.972;12.286;2023-10-13T03:15:25;100396.47;;;10.63;100.00
64827;BME280;51265;53.972;12.286;2023-10-13T03:17:57;100383.72;;;10.67;100.00
64827;BME280;51265;53.972;12.286;2023-10-13T03:20:27;100380.97;;;10.67;100.00
64827;BME280;51265;53.972;12.286;2023-10-13T03:23:00;100367.88;;;10.72;100.00
64827;BME280;51265;53.972;12.286;2023-10-13T03:25:26;100367.88;;;10.72;100.00
64827;BME280;51265;53.972;12.286;2023-10-13T03:28:03;100365.47;;;10.71;100.00
64827;BME280;51265;53.972;12.286;2023-10-13T03:30:33;100363.78;;;10.70;100.00
64827;BME280;51265;53.972;12.286;2023-10-13T03:33:05;100351.16;;;10.69;100.00
64827;BME280;51265;53.972;12.286;2023-10-13T03:35:34;100341.28;;;10.68;100.00
64827;BME280;51265;53.972;12.286;2023-10-13T03:38:04;100332.41;;;10.71;100.00
64827;BME280;51265;53.972;12.286;2023-10-13T03:40:40;100326.78;;;10.76;100.00
64827;BME280;51265;53.972;12.286;2023-10-13T03:43:07;100321.75;;;10.78;100.00
64827;BME280;51265;53.972;12.286;2023-10-13T03:45:40;100318.09;;;10.69;100.00
64827;BME280;51265;53.972;12.286;2023-10-13T03:48:11;100316.28;;;10.64;100.00
64827;BME280;51265;53.972;12.286;2023-10-13T03:50:52;100306.72;;;10.62;100.00
64827;BME280;51265;53.972;12.286;2023-10-13T03:53:36;100313.84;;;10.63;100.00
64827;BME280;51265;53.972;12.286;2023-10-13T03:56:22;100310.56;;;10.61;100.00
64827;BME280;51265;53.972;12.286;2023-10-13T03:59:06;100298.94;;;10.64;100.00
64827;BME280;51265;53.972;12.286;2023-10-13T04:01:33;100293.84;;;10.71;100.00
64827;BME280;51265;53.972;12.286;2023-10-13T04:04:16;100288.34;;;10.71;100.00
64827;BME280;51265;53.972;12.286;2023-10-13T04:07:01;100284.25;;;10.68;100.00
64827;BME280;51265;53.972;12.286;2023-10-13T04:09:33;100287.19;;;10.72;100.00
64827;BME280;51265;53.972;12.286;2023-10-13T04:12:02;100278.81;;;10.77;100.00
64827;BME280;51265;53.972;12.286;2023-10-13T04:14:39;100281.97;;;10.84;100.00
64827;BME280;51265;53.972;12.286;2023-10-13T04:17:12;100274.22;;;10.86;100.00
64827;BME280;51265;53.972;12.286;2023-10-13T04:19:41;100268.09;;;10.89;100.00
64827;BME280;51265;53.972;12.286;2023-10-13T04:22:28;100264.72;;;10.92;100.00
64827;BME280;51265;53.972;12.286;2023-10-13T04:28:02;100258.06;;;10.93;100.00
64827;BME280;51265;53.972;12.286;2023-10-13T04:30:48;100253.91;;;10.96;100.00
64827;BME280;51265;53.972;12.286;2023-10-13T04:33:25;100252.97;;;11.01;100.00
64827;BME280;51265;53.972;12.286;2023-10-13T04:36:08;100249.28;;;11.05;100.00
64827;BME280;51265;53.972;12.286;2023-10-13T04:38:50;100245.78;;;11.13;100.00
64827;BME280;51265;53.972;12.286;2023-10-13T04:44:16;100238.38;;;11.22;100.00
64827;BME280;51265;53.972;12.286;2023-10-13T04:47:02;100231.44;;;11.25;100.00
64827;BME280;51265;53.972;12.286;2023-10-13T04:49:33;100233.06;;;11.26;100.00
64827;BME280;51265;53.972;12.286;2023-10-13T04:52:16;100231.81;;;11.32;100.00
64827;BME280;51265;53.972;12.286;2023-10-13T04:55:01;100239.97;;;11.37;100.00
64827;BME280;51265;53.972;12.286;2023-10-13T04:57:50;100229.94;;;11.41;100.00
64827;BME280;51265;53.972;12.286;2023-10-13T05:00:26;100227.06;;;11.46;100.00
64827;BME280;51265;53.972;12.286;2023-10-13T05:03:12;100227.88;;;11.47;100.00
64827;BME280;51265;53.972;12.286;2023-10-13T05:05:56;100229.69;;;11.52;100.00
64827;BME280;51265;53.972;12.286;2023-10-13T05:08:57;100232.94;;;11.54;100.00
64827;BME280;51265;53.972;12.286;2023-10-13T05:11:42;100222.25;;;11.61;100.00
64827;BME280;51265;53.972;12.286;2023-10-13T05:14:27;100213.03;;;11.65;100.00
64827;BME280;51265;53.972;12.286;2023-10-13T05:17:11;100209.97;;;11.67;100.00
64827;BME280;51265;53.972;12.286;2023-10-13T05:19:58;100210.47;;;11.69;100.00
64827;BME280;51265;53.972;12.286;2023-10-13T05:22:43;100203.00;;;11.69;100.00
64827;BME280;51265;53.972;12.286;2023-10-13T05:25:27;100193.78;;;11.74;100.00
64827;BME280;51265;53.972;12.286;2023-10-13T05:28:12;100193.16;;;11.77;100.00
64827;BME280;51265;53.972;12.286;2023-10-13T05:30:59;100196.09;;;11.81;100.00
64827;BME280;51265;53.972;12.286;2023-10-13T05:33:44;100184.72;;;11.82;100.00
64827;BME280;51265;53.972;12.286;2023-10-13T05:36:29;100181.88;;;11.87;100.00
64827;BME280;51265;53.972;12.286;2023-10-13T05:39:13;100172.28;;;11.85;100.00
64827;BME280;51265;53.972;12.286;2023-10-13T05:41:58;100177.66;;;11.90;100.00
64827;BME280;51265;53.972;12.286;2023-10-13T05:44:43;100167.31;;;11.95;100.00
64827;BME280;51265;53.972;12.286;2023-10-13T05:47:44;100173.78;;;12.00;100.00
64827;BME280;51265;53.972;12.286;2023-10-13T05:50:16;100159.34;;;12.03;100.00
64827;BME280;51265;53.972;12.286;2023-10-13T05:52:46;100155.97;;;12.06;100.00
64827;BME280;51265;53.972;12.286;2023-10-13T05:55:24;100154.81;;;12.07;100.00
64827;BME280;51265;53.972;12.286;2023-10-13T05:58:09;100148.81;;;12.05;100.00
64827;BME280;51265;53.972;12.286;2023-10-13T06:00:55;100166.38;;;12.09;100.00
64827;BME280;51265;53.972;12.286;2023-10-13T06:03:40;100161.03;;;12.12;100.00
64827;BME280;51265;53.972;12.286;2023-10-13T06:06:25;100157.31;;;12.17;100.00
64827;BME280;51265;53.972;12.286;2023-10-13T06:09:10;100151.13;;;12.20;100.00
64827;BME280;51265;53.972;12.286;2023-10-13T06:11:55;100159.91;;;12.22;100.00
64827;BME280;51265;53.972;12.286;2023-10-13T06:14:40;100149.69;;;12.23;100.00
64827;BME280;51265;53.972;12.286;2023-10-13T06:17:25;100157.50;;;12.29;100.00
64827;BME280;51265;53.972;12.286;2023-10-13T06:20:10;100143.34;;;12.31;100.00
64827;BME280;51265;53.972;12.286;2023-10-13T06:22:55;100146.13;;;12.31;100.00
64827;BME280;51265;53.972;12.286;2023-10-13T06:25:40;100150.50;;;12.32;100.00
64827;BME280;51265;53.972;12.286;2023-10-13T06:28:25;100161.25;;;12.33;100.00
64827;BME280;51265;53.972;12.286;2023-10-13T06:31:08;100151.19;;;12.37;100.00
64827;BME280;51265;53.972;12.286;2023-10-13T06:33:34;100149.25;;;12.46;100.00
64827;BME280;51265;53.972;12.286;2023-10-13T06:36:02;100148.56;;;12.50;100.00
64827;BME280;51265;53.972;12.286;2023-10-13T06:38:29;100154.78;;;12.55;100.00
64827;BME280;51265;53.972;12.286;2023-10-13T06:41:03;100151.03;;;12.60;100.00
64827;BME280;51265;53.972;12.286;2023-10-13T06:43:33;100143.09;;;12.67;100.00
64827;BME280;51265;53.972;12.286;2023-10-13T06:46:12;100138.53;;;12.71;100.00
64827;BME280;51265;53.972;12.286;2023-10-13T06:48:41;100143.22;;;12.70;100.00
64827;BME280;51265;53.972;12.286;2023-10-13T06:51:08;100149.25;;;12.73;100.00
64827;BME280;51265;53.972;12.286;2023-10-13T06:53:45;100140.16;;;12.72;100.00
64827;BME280;51265;53.972;12.286;2023-10-13T06:56:15;100135.78;;;12.71;100.00
64827;BME280;51265;53.972;12.286;2023-10-13T06:58:54;100135.59;;;12.76;100.00
64827;BME280;51265;53.972;12.286;2023-10-13T07:01:26;100149.91;;;12.78;100.00
64827;BME280;51265;53.972;12.286;2023-10-13T07:03:53;100137.56;;;12.84;100.00
64827;BME280;51265;53.972;12.286;2023-10-13T07:06:20;100147.63;;;12.89;100.00
64827;BME280;51265;53.972;12.286;2023-10-13T07:08:47;100138.81;;;12.95;100.00
64827;BME280;51265;53.972;12.286;2023-10-13T07:11:25;100137.53;;;13.02;100.00
64827;BME280;51265;53.972;12.286;2023-10-13T07:14:04;100135.41;;;13.07;100.00
64827;BME280;51265;53.972;12.286;2023-10-13T07:16:44;100148.25;;;13.12;100.00
64827;BME280;51265;53.972;12.286;2023-10-13T07:19:25;100149.38;;;13.19;100.00
64827;BME280;51265;53.972;12.286;2023-10-13T07:21:57;100136.25;;;13.25;100.00
64827;BME280;51265;53.972;12.286;2023-10-13T07:24:48;100143.56;;;13.30;100.00
64827;BME280;51265;53.972;12.286;2023-10-13T07:27:24;100139.78;;;13.34;100.00
64827;BME280;51265;53.972;12.286;2023-10-13T07:29:56;100147.91;;;13.39;100.00
64827;BME280;51265;53.972;12.286;2023-10-13T07:32:43;100144.97;;;13.44;100.00
64827;BME280;51265;53.972;12.286;2023-10-13T07:35:12;100137.16;;;13.47;100.00
64827;BME280;51265;53.972;12.286;2023-10-13T07:37:42;100139.75;;;13.52;100.00
64827;BME280;51265;53.972;12.286;2023-10-13T07:40:08;100130.28;;;13.53;100.00
64827;BME280;51265;53.972;12.286;2023-10-13T07:42:54;100135.19;;;13.56;100.00
64827;BME280;51265;53.972;12.286;2023-10-13T07:45:27;100120.16;;;13.65;100.00
64827;BME280;51265;53.972;12.286;2023-10-13T07:48:09;100118.50;;;13.73;100.00
64827;BME280;51265;53.972;12.286;2023-10-13T07:50:45;100111.16;;;13.77;100.00
64827;BME280;51265;53.972;12.286;2023-10-13T07:53:12;100106.25;;;13.83;100.00
64827;BME280;51265;53.972;12.286;2023-10-13T07:55:52;100110.59;;;13.92;100.00
64827;BME280;51265;53.972;12.286;2023-10-13T07:58:23;100103.25;;;13.97;100.00
64827;BME280;51265;53.972;12.286;2023-10-13T08:01:00;100091.44;;;14.08;100.00
64827;BME280;51265;53.972;12.286;2023-10-13T08:04:25;100089.97;;;14.11;100.00
64827;BME280;51265;53.972;12.286;2023-10-13T08:06:54;100087.00;;;14.16;100.00
64827;BME280;51265;53.972;12.286;2023-10-13T08:09:28;100077.53;;;14.17;100.00
64827;BME280;51265;53.972;12.286;2023-10-13T08:12:07;100079.44;;;14.25;100.00
64827;BME280;51265;53.972;12.286;2023-10-13T08:14:38;100072.06;;;14.29;100.00
64827;BME280;51265;53.972;12.286;2023-10-13T08:17:07;100064.72;;;14.33;100.00
64827;BME280;51265;53.972;12.286;2023-10-13T08:19:36;100054.47;;;14.34;100.00
64827;BME280;51265;53.972;12.286;2023-10-13T08:22:06;100061.75;;;14.38;100.00
64827;BME280;51265;53.972;12.286;2023-10-13T08:24:48;100047.22;;;14.41;100.00
64827;BME280;51265;53.972;12.286;2023-10-13T08:27:19;100055.53;;;14.41;100.00
64827;BME280;51265;53.972;12.286;2023-10-13T08:30:01;100059.25;;;14.45;100.00
64827;BME280;51265;53.972;12.286;2023-10-13T08:32:28;100042.28;;;14.47;100.00
64827;BME280;51265;53.972;12.286;2023-10-13T08:34:59;100032.81;;;14.48;100.00
64827;BME280;51265;53.972;12.286;2023-10-13T08:37:32;100024.38;;;14.44;100.00
64827;BME280;51265;53.972;12.286;2023-10-13T08:40:01;100021.16;;;14.42;100.00
64827;BME280;51265;53.972;12.286;2023-10-13T08:45:09;99998.03;;;14.38;100.00
64827;BME280;51265;53.972;12.286;2023-10-13T08:47:56;99995.81;;;14.32;100.00
64827;BME280;51265;53.972;12.286;2023-10-13T08:53:26;100003.09;;;14.36;100.00
64827;BME280;51265;53.972;12.286;2023-10-13T08:55:59;100003.81;;;14.45;100.00
64827;BME280;51265;53.972;12.286;2023-10-13T08:58:42;99990.88;;;14.58;100.00
64827;BME280;51265;53.972;12.286;2023-10-13T09:01:23;99991.22;;;14.57;100.00
64827;BME280;51265;53.972;12.286;2023-10-13T09:04:10;99985.72;;;14.69;100.00
64827;BME280;51265;53.972;12.286;2023-10-13T09:06:42;99988.63;;;14.73;100.00
64827;BME280;51265;53.972;12.286;2023-10-13T09:09:09;99994.97;;;14.73;100.00
64827;BME280;51265;53.972;12.286;2023-10-13T09:11:55;99993.34;;;14.72;100.00
64827;BME280;51265;53.972;12.286;2023-10-13T09:14:36;99992.41;;;14.68;100.00
64827;BME280;51265;53.972;12.286;2023-10-13T09:17:05;99993.22;;;14.68;100.00
64827;BME280;51265;53.972;12.286;2023-10-13T09:20:04;99983.19;;;14.76;100.00
64827;BME280;51265;53.972;12.286;2023-10-13T09:22:51;99975.00;;;14.80;100.00
64827;BME280;51265;53.972;12.286;2023-10-13T09:25:38;99964.25;;;14.78;100.00
64827;BME280;51265;53.972;12.286;2023-10-13T09:28:15;99956.88;;;14.82;100.00
64827;BME280;51265;53.972;12.286;2023-10-13T09:30:49;99951.81;;;14.84;100.00
64827;BME280;51265;53.972;12.286;2023-10-13T09:33:24;99943.50;;;14.84;100.00
64827;BME280;51265;53.972;12.286;2023-10-13T09:36:06;99955.72;;;14.83;100.00
64827;BME280;51265;53.972;12.286;2023-10-13T09:38:37;99952.25;;;14.86;100.00
64827;BME280;51265;53.972;12.286;2023-10-13T09:41:07;99940.50;;;14.89;100.00
64827;BME280;51265;53.972;12.286;2023-10-13T09:43:52;99943.94;;;14.86;100.00
64827;BME280;51265;53.972;12.286;2023-10-13T09:46:19;99943.25;;;14.89;100.00
64827;BME280;51265;53.972;12.286;2023-10-13T09:48:50;99942.22;;;14.94;100.00
64827;BME280;51265;53.972;12.286;2023-10-13T09:51:33;99937.97;;;14.97;100.00
64827;BME280;51265;53.972;12.286;2023-10-13T09:54:13;99946.72;;;14.99;100.00
64827;BME280;51265;53.972;12.286;2023-10-13T09:56:50;99945.81;;;14.94;100.00
64827;BME280;51265;53.972;12.286;2023-10-13T09:59:22;99942.94;;;15.03;100.00
64827;BME280;51265;53.972;12.286;2023-10-13T10:01:51;99932.06;;;15.10;100.00
64827;BME280;51265;53.972;12.286;2023-10-13T10:04:23;99921.09;;;15.14;100.00
64827;BME280;51265;53.972;12.286;2023-10-13T10:06:57;99918.66;;;15.12;100.00
64827;BME280;51265;53.972;12.286;2023-10-13T10:09:30;99924.78;;;15.06;100.00
64827;BME280;51265;53.972;12.286;2023-10-13T10:12:24;99916.94;;;15.08;100.00
64827;BME280;51265;53.972;12.286;2023-10-13T10:15:35;99909.78;;;15.07;100.00
64827;BME280;51265;53.972;12.286;2023-10-13T10:18:00;99913.69;;;15.06;100.00
64827;BME280;51265;53.972;12.286;2023-10-13T10:20:36;99909.41;;;15.08;100.00
64827;BME280;51265;53.972;12.286;2023-10-13T10:23:21;99898.91;;;15.14;100.00
64827;BME280;51265;53.972;12.286;2023-10-13T10:25:48;99894.97;;;15.15;100.00
64827;BME280;51265;53.972;12.286;2023-10-13T10:28:22;99898.69;;;15.07;100.00
64827;BME280;51265;53.972;12.286;2023-10-13T10:30:48;99887.34;;;15.00;100.00
64827;BME280;51265;53.972;12.286;2023-10-13T10:33:15;99883.44;;;15.01;100.00
64827;BME280;51265;53.972;12.286;2023-10-13T10:35:44;99873.03;;;14.98;100.00
64827;BME280;51265;53.972;12.286;2023-10-13T10:38:15;99869.78;;;14.95;100.00
64827;BME280;51265;53.972;12.286;2023-10-13T10:43:30;99879.03;;;15.12;100.00
64827;BME280;51265;53.972;12.286;2023-10-13T10:46:27;99877.41;;;15.11;100.00
64827;BME280;51265;53.972;12.286;2023-10-13T10:48:57;99881.34;;;15.10;100.00
64827;BME280;51265;53.972;12.286;2023-10-13T10:51:27;99872.78;;;15.15;100.00
64827;BME280;51265;53.972;12.286;2023-10-13T10:53:58;99878.47;;;15.18;100.00
64827;BME280;51265;53.972;12.286;2023-10-13T10:56:37;99868.41;;;15.26;100.00
64827;BME280;51265;53.972;12.286;2023-10-13T10:59:05;99862.13;;;15.29;100.00
64827;BME280;51265;53.972;12.286;2023-10-13T11:01:33;99839.66;;;15.47;100.00
64827;BME280;51265;53.972;12.286;2023-10-13T11:04:10;99832.47;;;15.70;100.00
64827;BME280;51265;53.972;12.286;2023-10-13T11:06:51;99823.44;;;15.73;100.00
64827;BME280;51265;53.972;12.286;2023-10-13T11:09:29;99816.03;;;15.77;100.00
64827;BME280;51265;53.972;12.286;2023-10-13T11:14:32;99802.84;;;15.62;100.00
64827;BME280;51265;53.972;12.286;2023-10-13T11:16:59;99797.56;;;15.69;100.00
64827;BME280;51265;53.972;12.286;2023-10-13T11:19:46;99798.00;;;15.71;100.00
64827;BME280;51265;53.972;12.286;2023-10-13T11:22:14;99794.25;;;15.79;100.00
64827;BME280;51265;53.972;12.286;2023-10-13T11:24:56;99792.97;;;16.05;100.00
64827;BME280;51265;53.972;12.286;2023-10-13T11:27:31;99798.22;;;16.22;100.00
64827;BME280;51265;53.972;12.286;2023-10-13T11:30:11;99772.22;;;16.30;100.00
64827;BME280;51265;53.972;12.286;2023-10-13T11:32:43;99755.09;;;16.12;100.00
64827;BME280;51265;53.972;12.286;2023-10-13T11:35:10;99745.41;;;16.06;100.00
64827;BME280;51265;53.972;12.286;2023-10-13T11:37:50;99733.03;;;16.04;100.00
64827;BME280;51265;53.972;12.286;2023-10-13T11:40:23;99735.31;;;16.14;100.00
64827;BME280;51265;53.972;12.286;2023-10-13T11:43:07;99717.78;;;16.13;100.00
64827;BME280;51265;53.972;12.286;2023-10-13T11:45:41;99717.91;;;16.17;100.00
64827;BME280;51265;53.972;12.286;2023-10-13T11:48:26;99709.31;;;16.22;100.00
64827;BME280;51265;53.972;12.286;2023-10-13T11:51:09;99697.47;;;16.25;100.00
64827;BME280;51265;53.972;12.286;2023-10-13T11:53:50;99692.09;;;16.32;100.00
64827;BME280;51265;53.972;12.286;2023-10-13T11:56:20;99685.06;;;16.38;100.00
64827;BME280;51265;53.972;12.286;2023-10-13T11:58:49;99685.06;;;16.38;100.00
64827;BME280;51265;53.972;12.286;2023-10-13T12:01:15;99672.53;;;16.44;100.00
64827;BME280;51265;53.972;12.286;2023-10-13T12:03:46;99664.97;;;16.61;100.00
64827;BME280;51265;53.972;12.286;2023-10-13T12:06:33;99659.44;;;16.80;100.00
64827;BME280;51265;53.972;12.286;2023-10-13T12:09:04;99656.91;;;16.91;100.00
64827;BME280;51265;53.972;12.286;2023-10-13T12:11:48;99652.59;;;17.13;100.00
64827;BME280;51265;53.972;12.286;2023-10-13T12:14:17;99646.66;;;17.34;100.00
64827;BME280;51265;53.972;12.286;2023-10-13T12:17:03;99636.13;;;17.66;100.00
64827;BME280;51265;53.972;12.286;2023-10-13T12:19:30;99612.69;;;17.90;100.00
64827;BME280;51265;53.972;12.286;2023-10-13T12:21:57;99598.63;;;18.06;100.00
64827;BME280;51265;53.972;12.286;2023-10-13T12:24:25;99572.44;;;18.10;100.00
64827;BME280;51265;53.972;12.286;2023-10-13T12:27:06;99554.44;;;18.34;100.00
64827;BME280;51265;53.972;12.286;2023-10-13T12:29:49;99533.22;;;18.53;100.00
64827;BME280;51265;53.972;12.286;2023-10-13T12:32:18;99524.50;;;18.58;100.00
64827;BME280;51265;53.972;12.286;2023-10-13T12:34:57;99501.44;;;18.61;100.00
64827;BME280;51265;53.972;12.286;2023-10-13T12:37:28;99478.00;;;18.65;100.00
64827;BME280;51265;53.972;12.286;2023-10-13T12:40:14;99471.19;;;18.63;100.00
64827;BME280;51265;53.972;12.286;2023-10-13T12:43:00;99467.09;;;18.53;100.00
64827;BME280;51265;53.972;12.286;2023-10-13T12:45:46;99445.25;;;18.59;100.00
64827;BME280;51265;53.972;12.286;2023-10-13T12:48:32;99448.81;;;18.59;100.00
64827;BME280;51265;53.972;12.286;2023-10-13T12:51:17;99434.28;;;18.39;100.00
64827;BME280;51265;53.972;12.286;2023-10-13T12:54:00;99435.03;;;18.36;100.00
64827;BME280;51265;53.972;12.286;2023-10-13T12:56:46;99418.81;;;18.46;100.00
64827;BME280;51265;53.972;12.286;2023-10-13T12:59:12;99417.16;;;18.41;100.00
64827;BME280;51265;53.972;12.286;2023-10-13T13:01:41;99414.91;;;18.54;100.00
64827;BME280;51265;53.972;12.286;2023-10-13T13:04:11;99411.44;;;18.64;100.00
64827;BME280;51265;53.972;12.286;2023-10-13T13:06:44;99407.56;;;18.72;100.00
64827;BME280;51265;53.972;12.286;2023-10-13T13:09:10;99402.44;;;18.78;100.00
64827;BME280;51265;53.972;12.286;2023-10-13T13:11:36;99400.22;;;18.57;100.00
64827;BME280;51265;53.972;12.286;2023-10-13T13:14:09;99393.50;;;18.61;100.00
64827;BME280;51265;53.972;12.286;2023-10-13T13:16:36;99391.94;;;18.67;100.00
64827;BME280;51265;53.972;12.286;2023-10-13T13:19:05;99399.59;;;18.71;100.00
64827;BME280;51265;53.972;12.286;2023-10-13T13:21:37;99395.69;;;18.79;100.00
64827;BME280;51265;53.972;12.286;2023-10-13T13:24:04;99403.34;;;18.89;100.00
64827;BME280;51265;53.972;12.286;2023-10-13T13:26:37;99390.69;;;18.99;100.00
64827;BME280;51265;53.972;12.286;2023-10-13T13:29:07;99381.19;;;19.07;100.00
64827;BME280;51265;53.972;12.286;2023-10-13T13:31:36;99394.63;;;18.94;100.00
64827;BME280;51265;53.972;12.286;2023-10-13T13:34:10;99383.88;;;18.96;100.00
64827;BME280;51265;53.972;12.286;2023-10-13T13:36:39;99361.53;;;18.92;100.00
64827;BME280;51265;53.972;12.286;2023-10-13T13:39:11;99363.03;;;18.83;100.00
64827;BME280;51265;53.972;12.286;2023-10-13T13:41:37;99368.09;;;18.70;100.00